Time;durP1;ratioP1;P1;durP2;ratioP2;P2;SDS_P1;SDS_P2;PMS_P1;PMS_P2;Temp;Humidity;BMP_temperature;BMP_pressure;BME280_temperature;BME280_humidity;BME280_pressure;Samples;Min_cycle;Max_cycle;Signal;HPM_P1;HPM_P2
2022/03/19 00:00:11;;;;;;;46.50;20.45;;;;;;;-2.51;51.82;97444.13;5084035;28;20352;-85
2022/03/19 00:02:37;;;;;;;39.67;17.70;;;;;;;-2.49;51.36;97439.69;5083044;28;20025;-84
2022/03/19 00:05:02;;;;;;;39.47;18.77;;;;;;;-2.56;51.63;97444.25;5062982;28;20403;-84
2022/03/19 00:07:28;;;;;;;45.75;18.52;;;;;;;-2.61;51.55;97439.13;5065581;28;20487;-83
2022/03/19 00:09:53;;;;;;;38.70;19.20;;;;;;;-2.58;51.32;97445.22;5063387;28;20027;-84
2022/03/19 00:12:19;;;;;;;42.88;20.92;;;;;;;-2.65;52.36;97445.41;5083728;28;20024;-83
2022/03/19 00:14:45;;;;;;;43.90;21.80;;;;;;;-2.66;52.18;97443.66;5085200;28;20024;-85
2022/03/19 00:17:11;;;;;;;49.35;21.45;;;;;;;-2.67;52.61;97441.94;5067597;28;20759;-84
2022/03/19 00:19:38;;;;;;;47.03;21.70;;;;;;;-2.68;53.21;97445.50;5068012;28;20512;-85
2022/03/19 00:22:03;;;;;;;40.03;19.30;;;;;;;-2.76;53.47;97437.81;5081527;28;20035;-84
2022/03/19 00:24:29;;;;;;;42.80;21.02;;;;;;;-2.74;53.04;97438.63;5086527;28;20459;-85
2022/03/19 00:26:54;;;;;;;43.40;19.85;;;;;;;-2.69;53.03;97438.50;5083166;28;20024;-85
2022/03/19 00:29:20;;;;;;;42.65;19.52;;;;;;;-2.62;53.01;97436.56;5085434;28;20138;-84
2022/03/19 00:31:45;;;;;;;43.13;19.05;;;;;;;-2.66;53.11;97437.56;5080842;28;20387;-84
2022/03/19 00:34:11;;;;;;;40.63;19.23;;;;;;;-2.53;52.39;97432.81;5085397;28;20016;-81
2022/03/19 00:36:36;;;;;;;42.63;19.55;;;;;;;-2.42;52.42;97435.09;5067570;28;20032;-81
2022/03/19 00:39:01;;;;;;;42.30;20.08;;;;;;;-2.64;53.07;97433.97;5083563;28;20020;-81
2022/03/19 00:41:27;;;;;;;39.08;18.88;;;;;;;-2.66;52.98;97435.78;5064577;28;20024;-81
2022/03/19 00:43:52;;;;;;;39.88;21.35;;;;;;;-2.63;53.31;97438.31;5083254;28;20023;-82
2022/03/19 00:46:19;;;;;;;41.58;20.20;;;;;;;-2.59;53.26;97444.34;5085757;28;20028;-82
2022/03/19 00:48:45;;;;;;;43.33;19.80;;;;;;;-2.75;52.97;97438.69;5082459;28;20446;-83
2022/03/19 00:51:10;;;;;;;41.72;20.45;;;;;;;-2.73;53.24;97439.50;5082672;28;20453;-83
2022/03/19 00:53:35;;;;;;;49.33;20.70;;;;;;;-2.76;53.12;97435.19;5084523;28;20478;-81
2022/03/19 00:56:01;;;;;;;38.05;18.05;;;;;;;-2.83;53.31;97441.53;5084126;28;20032;-81
2022/03/19 00:58:26;;;;;;;32.70;17.92;;;;;;;-2.80;53.12;97446.69;5087638;28;20042;-81
2022/03/19 01:00:52;;;;;;;38.40;18.40;;;;;;;-2.87;54.58;97440.75;5081629;28;20093;-81
2022/03/19 01:03:17;;;;;;;35.75;16.92;;;;;;;-2.88;54.51;97443.44;5082516;28;20028;-81
2022/03/19 01:05:43;;;;;;;33.42;18.13;;;;;;;-2.93;54.93;97435.69;5083813;28;20028;-81
2022/03/19 01:08:08;;;;;;;33.03;16.52;;;;;;;-2.95;54.08;97434.84;5084015;28;20123;-80
2022/03/19 01:10:35;;;;;;;28.15;15.13;;;;;;;-2.87;53.94;97439.91;5084370;28;20134;-80
2022/03/19 01:13:02;;;;;;;28.45;14.40;;;;;;;-2.91;53.26;97431.25;5082402;28;20103;-80
2022/03/19 01:15:27;;;;;;;34.13;15.85;;;;;;;-3.04;54.34;97437.75;5066005;28;20020;-80
2022/03/19 01:17:53;;;;;;;32.50;15.15;;;;;;;-3.06;54.20;97434.31;5081760;28;20078;-80
2022/03/19 01:20:19;;;;;;;31.27;14.73;;;;;;;-3.22;53.58;97439.97;5084128;28;20028;-80
2022/03/19 01:22:44;;;;;;;30.80;15.48;;;;;;;-3.40;53.84;97426.44;5081973;28;20047;-80
2022/03/19 01:25:10;;;;;;;28.75;14.68;;;;;;;-3.42;54.56;97428.28;5082125;28;20035;-80
2022/03/19 01:27:36;;;;;;;31.63;14.88;;;;;;;-3.38;54.22;97435.16;5082182;28;20079;-80
2022/03/19 01:30:04;;;;;;;32.97;15.88;;;;;;;-3.40;54.05;97431.69;5082245;28;20056;-80
2022/03/19 01:32:29;;;;;;;34.78;15.63;;;;;;;-3.42;54.35;97425.66;5065924;28;20055;-80
2022/03/19 01:34:54;;;;;;;33.83;15.35;;;;;;;-3.50;55.05;97430.25;5082347;28;20028;-80
2022/03/19 01:37:21;;;;;;;27.88;14.45;;;;;;;-3.47;54.76;97425.75;5084008;28;20027;-80
2022/03/19 01:39:46;;;;;;;33.65;16.83;;;;;;;-3.40;55.09;97421.19;5081528;28;20032;-80
2022/03/19 01:42:12;;;;;;;32.08;16.23;;;;;;;-3.37;54.82;97431.63;5083797;28;20482;-80
2022/03/19 01:44:37;;;;;;;28.27;14.43;;;;;;;-3.39;54.00;97430.81;5087187;28;20035;-80
2022/03/19 01:47:10;;;;;;;29.27;14.63;;;;;;;-3.43;54.33;97433.56;5087196;28;20028;-79
2022/03/19 01:49:36;;;;;;;32.33;14.60;;;;;;;-3.53;54.48;97428.53;5087108;28;20403;-79
2022/03/19 01:52:01;;;;;;;31.42;14.75;;;;;;;-3.43;54.62;97426.53;5087490;28;20027;-79
2022/03/19 01:54:31;;;;;;;31.38;15.18;;;;;;;-3.41;54.27;97424.75;5069426;28;20031;-80
2022/03/19 01:56:57;;;;;;;26.67;14.07;;;;;;;-3.44;54.53;97422.19;5069546;28;20027;-81
2022/03/19 01:59:23;;;;;;;30.95;14.73;;;;;;;-3.39;54.04;97417.69;5086809;28;20051;-82
2022/03/19 02:01:49;;;;;;;29.33;13.98;;;;;;;-3.30;54.16;97419.19;5087487;28;20028;-83
2022/03/19 02:04:14;;;;;;;29.48;14.43;;;;;;;-3.48;55.33;97417.91;5069379;28;20047;-82
2022/03/19 02:06:40;;;;;;;26.27;12.38;;;;;;;-3.52;54.68;97411.03;5086203;28;20012;-82
2022/03/19 02:09:05;;;;;;;25.58;12.48;;;;;;;-4.18;56.27;97417.03;5086267;28;20051;-82
2022/03/19 02:11:31;;;;;;;25.30;12.48;;;;;;;-4.23;56.20;97414.53;5088227;28;20070;-82
2022/03/19 02:13:56;;;;;;;25.55;11.82;;;;;;;-4.19;56.33;97405.69;5088168;28;20030;-82
2022/03/19 02:16:22;;;;;;;22.80;12.05;;;;;;;-4.12;56.58;97411.66;5086742;28;20020;-82
2022/03/19 02:18:47;;;;;;;23.92;11.73;;;;;;;-4.00;56.05;97413.97;5087607;28;20051;-82
2022/03/19 02:21:14;;;;;;;26.85;11.50;;;;;;;-4.16;56.40;97404.78;5088272;28;20032;-82
2022/03/19 02:26:23;;;;;;;22.92;11.32;;;;;;;-4.24;56.99;97407.56;5087543;28;20890;-82
2022/03/19 02:28:49;;;;;;;28.13;12.50;;;;;;;-4.17;56.88;97406.53;5087800;28;20044;-83
2022/03/19 02:31:14;;;;;;;26.00;12.13;;;;;;;-4.18;57.16;97406.56;5087362;28;20020;-82
2022/03/19 02:33:40;;;;;;;27.15;12.60;;;;;;;-4.13;57.01;97405.56;5088183;28;20089;-82
2022/03/19 02:36:05;;;;;;;24.63;13.07;;;;;;;-4.02;56.46;97418.41;5087683;28;20081;-82
2022/03/19 02:38:30;;;;;;;28.92;13.93;;;;;;;-4.11;57.07;97413.41;5086310;28;20032;-82
2022/03/19 02:40:56;;;;;;;28.70;13.15;;;;;;;-4.26;57.09;97417.22;5087248;28;20352;-83
2022/03/19 02:43:21;;;;;;;26.73;12.45;;;;;;;-4.16;57.53;97420.50;5085948;28;20491;-83
2022/03/19 02:45:47;;;;;;;21.30;11.48;;;;;;;-4.19;56.99;97421.41;5087382;28;20028;-83
2022/03/19 02:48:12;;;;;;;29.73;12.52;;;;;;;-4.13;57.04;97420.41;5085676;28;20032;-84
2022/03/19 02:50:38;;;;;;;23.30;11.75;;;;;;;-4.08;56.14;97418.56;5085994;28;20024;-82
2022/03/19 02:53:05;;;;;;;24.77;11.55;;;;;;;-4.34;56.75;97420.03;5084987;28;20028;-81
2022/03/19 02:55:40;;;;;;;28.95;13.32;;;;;;;-4.40;57.96;97423.63;5087326;28;20020;-81
2022/03/19 02:58:06;;;;;;;24.23;12.65;;;;;;;-4.31;57.27;97421.72;5085567;28;20028;-82
2022/03/19 03:00:32;;;;;;;27.35;12.00;;;;;;;-4.60;58.09;97421.47;5085563;28;20024;-82
2022/03/19 03:02:58;;;;;;;26.92;13.82;;;;;;;-4.65;58.04;97423.31;5068965;28;20025;-82
2022/03/19 03:05:23;;;;;;;25.80;13.02;;;;;;;-4.78;58.81;97418.38;5068770;28;20028;-81
2022/03/19 03:07:49;;;;;;;26.52;12.27;;;;;;;-4.82;58.81;97421.09;5085773;28;20470;-82
2022/03/19 03:10:15;;;;;;;29.40;12.15;;;;;;;-4.86;59.06;97426.38;5086675;28;20724;-81
2022/03/19 03:12:40;;;;;;;27.45;12.35;;;;;;;-4.85;59.10;97422.88;5087047;28;20046;-81
2022/03/19 03:15:06;;;;;;;33.70;12.75;;;;;;;-4.76;58.56;97426.19;5086594;28;20077;-82
2022/03/19 03:17:33;;;;;;;25.92;12.68;;;;;;;-4.68;58.27;97426.88;5086711;28;20028;-81
2022/03/19 03:19:58;;;;;;;26.25;11.95;;;;;;;-4.62;58.10;97423.25;5085226;28;20032;-81
2022/03/19 03:22:24;;;;;;;26.75;12.25;;;;;;;-4.49;57.44;97418.59;5085286;28;20028;-81
2022/03/19 03:24:49;;;;;;;33.08;13.40;;;;;;;-4.46;57.60;97413.31;5068088;28;20036;-80
2022/03/19 03:27:15;;;;;;;42.72;16.73;;;;;;;-4.32;57.66;97420.00;5084758;28;20024;-80
2022/03/19 03:29:41;;;;;;;44.47;16.85;;;;;;;-4.22;57.20;97421.47;5085110;28;20036;-81
2022/03/19 03:32:08;;;;;;;33.42;15.35;;;;;;;-4.20;57.16;97419.69;5068082;28;20488;-81
2022/03/19 03:34:33;;;;;;;30.20;15.20;;;;;;;-4.38;57.39;97424.47;5068723;28;20044;-81
2022/03/19 03:36:59;;;;;;;30.33;13.57;;;;;;;-4.45;57.46;97420.28;5086332;28;20020;-81
2022/03/19 03:39:24;;;;;;;29.83;14.35;;;;;;;-4.48;57.11;97415.09;5085090;28;20361;-80
2022/03/19 03:41:50;;;;;;;34.63;14.05;;;;;;;-4.57;57.64;97413.56;5086148;28;20071;-81
2022/03/19 03:44:15;;;;;;;31.05;14.52;;;;;;;-4.48;58.17;97415.09;5086074;28;20522;-81
2022/03/19 03:46:41;;;;;;;24.08;12.82;;;;;;;-4.37;57.72;97420.09;5067951;28;20039;-81
2022/03/19 03:49:07;;;;;;;22.65;12.68;;;;;;;-4.42;57.44;97417.59;5086004;28;20032;-81
2022/03/19 03:51:32;;;;;;;28.10;13.45;;;;;;;-4.48;58.06;97422.94;5086804;28;20024;-81
2022/03/19 03:53:58;;;;;;;30.65;14.02;;;;;;;-4.61;58.52;97419.75;5085572;28;20089;-80
2022/03/19 03:56:23;;;;;;;27.67;13.63;;;;;;;-4.67;59.62;97420.75;5086487;28;20032;-80
2022/03/19 03:58:48;;;;;;;34.22;13.70;;;;;;;-4.73;59.90;97428.72;5085639;28;20452;-79
2022/03/19 04:01:14;;;;;;;32.80;13.75;;;;;;;-4.53;59.92;97430.06;5086316;28;20039;-79
2022/03/19 04:03:39;;;;;;;32.88;15.27;;;;;;;-4.76;60.27;97415.72;5084423;28;20039;-78
2022/03/19 04:06:05;;;;;;;30.48;16.00;;;;;;;-4.70;59.45;97426.03;5084770;28;20540;-78
2022/03/19 04:08:31;;;;;;;33.97;14.73;;;;;;;-4.65;59.51;97420.72;5085567;28;20145;-82
2022/03/19 04:10:56;;;;;;;26.67;13.93;;;;;;;-4.66;59.59;97424.22;5065650;28;20574;-83
2022/03/19 04:13:22;;;;;;;26.77;13.02;;;;;;;-4.60;58.74;97424.09;5067093;28;20031;-83
2022/03/19 04:15:49;;;;;;;32.92;14.52;;;;;;;-4.63;58.34;97425.03;5087121;28;20034;-82
2022/03/19 04:18:14;;;;;;;30.02;14.80;;;;;;;-4.68;58.32;97423.41;5085255;28;20085;-82
2022/03/19 04:20:40;;;;;;;33.22;14.68;;;;;;;-4.73;57.90;97431.34;5084053;28;20324;-83
2022/03/19 04:23:06;;;;;;;37.40;15.70;;;;;;;-4.73;56.61;97420.88;5084404;28;20453;-82
2022/03/19 04:25:31;;;;;;;34.63;15.98;;;;;;;-4.84;56.76;97428.97;5084214;28;20120;-83
2022/03/19 04:27:56;;;;;;;26.55;13.93;;;;;;;-4.93;57.41;97426.53;5066734;28;20121;-83
2022/03/19 04:30:23;;;;;;;27.13;13.27;;;;;;;-4.94;57.74;97424.81;5067795;28;20047;-82
2022/03/19 04:32:52;;;;;;;28.42;13.65;;;;;;;-4.90;57.32;97424.72;5083655;28;20039;-83
2022/03/19 04:38:07;;;;;;;27.48;12.75;;;;;;;-4.97;57.92;97434.47;5084379;28;20398;-83
2022/03/19 04:40:33;;;;;;;26.67;12.68;;;;;;;-4.91;57.33;97432.59;5084029;28;20487;-81
2022/03/19 04:42:58;;;;;;;26.88;14.10;;;;;;;-4.90;57.97;97429.09;5084747;28;20030;-82
2022/03/19 04:45:24;;;;;;;25.38;12.15;;;;;;;-4.77;58.12;97440.19;5083810;28;20471;-81
2022/03/19 04:47:50;;;;;;;27.90;14.35;;;;;;;-4.87;57.88;97432.50;5084486;28;20024;-82
2022/03/19 04:50:16;;;;;;;31.27;15.13;;;;;;;-4.91;58.00;97433.47;5067050;28;20044;-82
2022/03/19 04:52:41;;;;;;;29.60;14.40;;;;;;;-4.90;57.79;97429.09;5084210;28;20406;-81
2022/03/19 04:55:07;;;;;;;27.88;14.73;;;;;;;-4.82;57.69;97429.78;5083465;28;20028;-81
2022/03/19 04:57:33;;;;;;;33.53;13.27;;;;;;;-4.71;56.72;97429.56;5083872;28;20026;-80
2022/03/19 04:59:58;;;;;;;25.92;12.65;;;;;;;-4.68;56.96;97431.25;5066838;28;20020;-82
2022/03/19 05:02:24;;;;;;;29.60;12.90;;;;;;;-4.72;57.59;97435.69;5083588;28;20020;-81
2022/03/19 05:04:51;;;;;;;25.60;12.73;;;;;;;-4.72;57.37;97440.91;5067628;28;20051;-82
2022/03/19 05:07:17;;;;;;;24.13;12.60;;;;;;;-4.67;56.48;97436.44;5083526;28;20387;-82
2022/03/19 05:12:34;;;;;;;20.20;10.32;;;;;;;-4.34;56.36;97439.22;5087137;28;20115;-81
2022/03/19 05:14:59;;;;;;;26.13;11.60;;;;;;;-4.14;56.46;97430.03;5082475;28;20020;-81
2022/03/19 05:17:25;;;;;;;22.17;10.80;;;;;;;-3.98;55.37;97430.53;5069821;28;20040;-81
2022/03/19 05:19:51;;;;;;;25.05;11.05;;;;;;;-3.71;54.52;97427.28;5087593;28;20028;-81
2022/03/19 05:22:17;;;;;;;20.58;11.07;;;;;;;-3.67;54.59;97426.28;5088155;28;20024;-81
2022/03/19 05:24:42;;;;;;;19.10;10.65;;;;;;;-3.46;54.66;97437.09;5089137;28;20027;-81
2022/03/19 05:27:11;;;;;;;25.15;12.23;;;;;;;-3.16;53.39;97439.81;5089652;28;20032;-80
2022/03/19 05:29:36;;;;;;;22.75;11.85;;;;;;;-3.14;54.51;97438.00;5071194;28;20044;-80
2022/03/19 05:32:03;;;;;;;20.98;12.23;;;;;;;-2.99;53.17;97435.88;5089634;28;20124;-81
2022/03/19 05:34:31;;;;;;;24.95;13.20;;;;;;;-3.18;52.77;97435.50;5089167;28;20502;-80
2022/03/19 05:37:00;;;;;;;23.63;12.65;;;;;;;-3.01;53.12;97427.16;5083856;28;20108;-81
2022/03/19 05:39:29;;;;;;;22.38;11.88;;;;;;;-2.93;53.48;97430.44;5061909;28;20028;-83
2022/03/19 05:41:54;;;;;;;26.80;12.40;;;;;;;-2.74;52.93;97429.91;5067833;28;20122;-82
2022/03/19 05:44:20;;;;;;;22.75;13.02;;;;;;;-2.53;52.72;97435.44;5085594;28;20073;-82
2022/03/19 05:46:45;;;;;;;21.30;11.02;;;;;;;-2.40;52.02;97439.41;5085785;28;20479;-81
2022/03/19 05:49:11;;;;;;;22.98;11.88;;;;;;;-2.36;51.97;97434.91;5084739;28;20225;-80
2022/03/19 05:51:36;;;;;;;27.42;12.40;;;;;;;-2.15;51.80;97436.03;5086847;28;20035;-80
2022/03/19 05:54:02;;;;;;;24.70;13.00;;;;;;;-2.03;51.67;97441.81;5080544;28;20031;-81
2022/03/19 05:56:28;;;;;;;27.15;15.45;;;;;;;-2.39;51.40;97441.16;5063450;28;20063;-80
2022/03/19 05:58:55;;;;;;;27.98;15.38;;;;;;;-1.95;50.91;97441.56;5085886;28;20060;-81
2022/03/19 06:01:26;;;;;;;30.65;15.85;;;;;;;-1.98;50.67;97453.00;5084994;28;20028;-81
2022/03/19 06:03:55;;;;;;;27.52;12.95;;;;;;;-1.99;50.65;97451.31;5085376;28;20053;-80
2022/03/19 06:06:21;;;;;;;24.50;12.48;;;;;;;-1.83;50.01;97450.81;5068510;28;20521;-79
2022/03/19 06:08:46;;;;;;;25.98;11.23;;;;;;;-1.68;49.81;97446.81;5053728;28;20047;-80
2022/03/19 06:11:11;;;;;;;21.70;11.02;;;;;;;-1.36;50.08;97447.50;5085013;28;20391;-80
2022/03/19 06:13:37;;;;;;;25.45;11.57;;;;;;;-1.10;49.48;97450.13;5084037;28;20024;-81
2022/03/19 06:16:02;;;;;;;22.23;12.38;;;;;;;-0.78;48.76;97442.84;5062732;28;20024;-80
2022/03/19 06:18:28;;;;;;;19.58;10.15;;;;;;;-0.57;46.53;97450.88;5085403;28;20124;-80
2022/03/19 06:20:53;;;;;;;17.95;10.27;;;;;;;-0.40;45.64;97445.81;5080137;28;20035;-80
2022/03/19 06:23:19;;;;;;;16.33;9.65;;;;;;;-0.52;45.94;97441.00;5084643;28;20031;-79
2022/03/19 06:25:44;;;;;;;18.63;10.38;;;;;;;-0.63;46.49;97436.16;5086109;28;20028;-83
2022/03/19 06:28:10;;;;;;;20.05;9.80;;;;;;;-0.75;46.30;97442.72;5081899;28;20035;-82
2022/03/19 06:30:37;;;;;;;16.80;10.10;;;;;;;-0.78;47.47;97440.22;5086741;28;20040;-84
2022/03/19 06:33:06;;;;;;;18.80;11.15;;;;;;;-0.52;47.00;97448.91;5084225;28;20357;-82
2022/03/19 06:38:16;;;;;;;18.60;10.07;;;;;;;0.16;46.06;97440.13;5068192;28;20411;-83
2022/03/19 06:40:41;;;;;;;14.95;9.50;;;;;;;0.29;45.01;97439.63;5085613;28;20467;-82
2022/03/19 06:43:06;;;;;;;17.02;10.05;;;;;;;0.42;45.33;97434.72;5067484;28;20028;-82
2022/03/19 06:45:32;;;;;;;19.23;11.60;;;;;;;0.70;44.96;97439.69;5085993;28;20023;-81
2022/03/19 06:47:57;;;;;;;23.52;10.30;;;;;;;1.05;44.82;97430.28;5087315;28;20035;-81
2022/03/19 06:50:23;;;;;;;19.85;10.73;;;;;;;1.31;43.53;97438.81;5086478;28;20035;-82
2022/03/19 06:52:48;;;;;;;15.70;10.32;;;;;;;1.51;43.28;97443.19;5084274;28;20028;-82
2022/03/19 06:55:13;;;;;;;20.40;11.65;;;;;;;1.60;42.63;97439.25;5087432;28;20470;-82
2022/03/19 06:57:39;;;;;;;21.48;10.57;;;;;;;1.82;43.14;97433.81;5084327;28;20035;-82
2022/03/19 07:00:05;;;;;;;22.17;11.20;;;;;;;2.02;42.41;97434.66;5087184;28;20101;-84
2022/03/19 07:02:30;;;;;;;19.73;11.43;;;;;;;2.17;42.27;97430.41;5065745;28;20591;-82
2022/03/19 07:04:56;;;;;;;18.23;10.95;;;;;;;2.28;41.15;97435.19;5087267;28;20074;-82
2022/03/19 07:07:22;;;;;;;21.02;11.40;;;;;;;2.52;40.17;97426.94;5086641;28;20024;-77
2022/03/19 07:09:49;;;;;;;17.33;11.02;;;;;;;2.57;40.24;97427.56;5086291;28;20035;-81
2022/03/19 07:12:15;;;;;;;15.55;10.55;;;;;;;2.74;39.83;97420.53;5067548;28;20027;-82
2022/03/19 07:14:40;;;;;;;18.05;11.27;;;;;;;2.90;39.58;97419.75;5087052;28;20528;-85
2022/03/19 07:17:05;;;;;;;18.65;10.80;;;;;;;3.02;39.50;97423.56;5086745;28;20025;-82
2022/03/19 07:19:31;;;;;;;20.75;11.45;;;;;;;3.16;39.02;97425.50;5067885;28;20024;-81
2022/03/19 07:21:57;;;;;;;18.83;11.52;;;;;;;3.25;38.53;97430.31;5086752;28;20039;-80
2022/03/19 07:24:22;;;;;;;20.55;11.32;;;;;;;3.21;37.65;97420.78;5080073;28;20020;-85
2022/03/19 07:26:48;;;;;;;19.73;11.68;;;;;;;3.33;37.20;97424.59;5089830;28;20036;-83
2022/03/19 07:29:15;;;;;;;19.30;10.68;;;;;;;3.53;36.89;97426.16;5084971;28;20044;-80
2022/03/19 07:31:41;;;;;;;16.85;10.13;;;;;;;3.60;36.85;97424.03;5085823;28;20032;-82
2022/03/19 07:34:06;;;;;;;18.42;10.52;;;;;;;3.70;37.59;97419.06;5077654;28;20020;-81
2022/03/19 07:36:33;;;;;;;16.70;9.70;;;;;;;3.68;37.14;97420.94;5068314;28;20039;-85
2022/03/19 07:38:58;;;;;;;16.65;10.25;;;;;;;3.89;36.59;97423.34;5077543;28;20396;-76
2022/03/19 07:44:08;;;;;;;15.02;10.20;;;;;;;4.06;37.62;97415.28;5082813;28;20059;-76
2022/03/19 07:46:35;;;;;;;15.95;10.77;;;;;;;4.24;36.66;97419.66;5083642;28;20016;-75
2022/03/19 07:49:01;;;;;;;15.35;10.07;;;;;;;4.35;37.38;97406.63;5050868;28;20027;-76
2022/03/19 07:51:27;;;;;;;17.58;10.40;;;;;;;4.57;36.37;97408.88;5082886;28;20039;-76
2022/03/19 07:53:53;;;;;;;18.20;10.20;;;;;;;4.51;36.78;97409.22;5066798;28;20031;-76
2022/03/19 07:56:18;;;;;;;15.30;9.68;;;;;;;4.71;35.00;97409.81;5066142;28;20032;-76
2022/03/19 07:58:50;;;;;;;13.95;9.70;;;;;;;4.69;35.59;97411.75;5083216;28;20375;-75
2022/03/19 08:01:16;;;;;;;19.33;9.77;;;;;;;4.95;34.09;97406.63;5083055;28;20035;-76
2022/03/19 08:03:41;;;;;;;16.20;10.10;;;;;;;4.82;34.73;97407.38;5084638;28;20052;-76
2022/03/19 08:06:07;;;;;;;15.18;9.52;;;;;;;4.79;34.97;97406.72;5084665;28;20042;-76
2022/03/19 08:08:34;;;;;;;14.98;9.48;;;;;;;4.93;34.18;97416.53;5085354;28;20257;-75
2022/03/19 08:11:01;;;;;;;19.35;11.23;;;;;;;5.00;33.64;97398.41;5084494;28;20020;-75
2022/03/19 08:13:26;;;;;;;20.77;11.73;;;;;;;5.13;33.37;97402.00;5085234;28;20592;-75
2022/03/19 08:15:52;;;;;;;19.15;11.07;;;;;;;5.18;32.96;97401.72;5084435;28;20024;-76
2022/03/19 08:18:17;;;;;;;21.23;11.52;;;;;;;5.21;32.74;97406.03;5083846;28;20043;-76
2022/03/19 08:20:44;;;;;;;20.23;11.05;;;;;;;5.21;32.28;97401.53;5067154;28;20020;-76
2022/03/19 08:23:09;;;;;;;17.88;10.15;;;;;;;5.04;32.58;97400.78;5084427;28;20055;-76
2022/03/19 08:25:35;;;;;;;16.30;10.43;;;;;;;5.05;32.45;97390.97;5067041;28;20402;-76
2022/03/19 08:28:00;;;;;;;15.05;9.68;;;;;;;5.02;32.71;97397.34;5085652;28;20517;-76
2022/03/19 08:30:26;;;;;;;15.23;10.25;;;;;;;5.05;32.57;97389.19;5050040;28;20051;-76
2022/03/19 08:32:51;;;;;;;16.02;9.30;;;;;;;5.15;32.71;97396.59;5085777;28;20036;-76
2022/03/19 08:35:17;;;;;;;14.77;9.48;;;;;;;5.25;31.55;97395.09;5085225;28;20017;-78
2022/03/19 08:37:42;;;;;;;16.20;10.10;;;;;;;5.18;30.65;97380.44;5085569;28;20016;-75
2022/03/19 08:40:18;;;;;;;21.75;10.18;;;;;;;4.91;33.36;97387.38;5084681;28;20070;-76
2022/03/19 08:42:55;;;;;;;14.02;9.85;;;;;;;5.26;32.19;97379.97;5083636;28;20376;-76
2022/03/19 08:45:20;;;;;;;18.90;10.85;;;;;;;4.90;31.75;97372.34;5084311;28;20081;-76
2022/03/19 08:47:46;;;;;;;17.80;10.05;;;;;;;4.74;32.61;97367.09;5083389;28;20016;-75
2022/03/19 08:50:12;;;;;;;16.48;10.27;;;;;;;4.94;32.43;97376.56;5084155;28;20032;-76
2022/03/19 08:52:37;;;;;;;19.40;10.50;;;;;;;5.02;32.29;97362.78;5083391;28;20544;-75
2022/03/19 08:55:03;;;;;;;24.50;10.80;;;;;;;5.19;32.29;97366.22;5084852;28;20031;-76
2022/03/19 08:57:29;;;;;;;24.08;10.48;;;;;;;5.37;32.27;97361.53;5083699;28;20032;-75
2022/03/19 08:59:54;;;;;;;17.77;10.38;;;;;;;5.47;32.35;97359.16;5083469;28;20458;-76
2022/03/19 09:02:19;;;;;;;16.27;9.98;;;;;;;5.36;32.21;97354.50;5085559;28;20028;-75
2022/03/19 09:04:45;;;;;;;16.90;10.88;;;;;;;5.52;31.51;97351.72;5083497;28;20016;-75
2022/03/19 09:07:13;;;;;;;17.63;10.70;;;;;;;5.54;31.72;97354.28;5067244;28;20383;-77
2022/03/19 09:09:38;;;;;;;15.82;10.43;;;;;;;5.75;31.92;97352.06;5083473;28;20448;-76
2022/03/19 09:12:04;;;;;;;15.30;10.15;;;;;;;5.70;30.85;97351.50;5083736;28;20024;-77
2022/03/19 09:14:30;;;;;;;16.55;8.85;;;;;;;5.62;30.29;97344.00;5086037;28;20475;-77
2022/03/19 09:16:55;;;;;;;16.13;9.48;;;;;;;5.76;30.72;97356.44;5084994;28;20039;-78
2022/03/19 09:19:22;;;;;;;14.30;9.70;;;;;;;5.62;30.73;97348.47;5066892;28;20077;-77
2022/03/19 09:21:47;;;;;;;12.60;8.98;;;;;;;5.52;30.35;97351.72;5083380;28;20028;-75
2022/03/19 09:24:15;;;;;;;13.60;9.10;;;;;;;5.77;30.11;97344.81;5085061;28;20089;-76
2022/03/19 09:26:40;;;;;;;13.60;9.50;;;;;;;5.83;29.65;97338.25;5084720;28;20482;-75
2022/03/19 09:29:06;;;;;;;15.60;9.30;;;;;;;5.88;29.27;97348.59;5083699;28;20058;-76
2022/03/19 09:31:31;;;;;;;13.40;7.65;;;;;;;5.55;27.60;97351.53;5083407;28;20055;-76
2022/03/19 09:33:57;;;;;;;12.05;7.68;;;;;;;5.49;29.26;97340.41;5083648;28;20043;-76
2022/03/19 09:36:24;;;;;;;12.30;7.85;;;;;;;5.70;28.46;97340.84;5083277;28;20028;-77
2022/03/19 09:38:49;;;;;;;18.05;9.45;;;;;;;5.55;28.03;97332.91;5084416;28;20875;-74
2022/03/19 09:41:15;;;;;;;12.95;8.55;;;;;;;5.73;29.24;97343.31;5084572;28;20057;-75
2022/03/19 09:43:41;;;;;;;13.55;8.05;;;;;;;5.77;28.53;97334.16;5082928;28;20028;-76
2022/03/19 09:46:07;;;;;;;14.65;7.70;;;;;;;5.50;28.47;97329.66;5083533;28;20032;-75
2022/03/19 09:48:32;;;;;;;12.38;8.25;;;;;;;5.21;28.82;97332.38;5084613;28;20446;-75
2022/03/19 09:50:58;;;;;;;18.33;8.20;;;;;;;5.20;30.05;97330.66;5083469;28;20198;-75
2022/03/19 09:53:25;;;;;;;17.75;7.97;;;;;;;5.32;29.91;97329.03;5084260;28;20111;-78
2022/03/19 09:55:53;;;;;;;18.70;7.47;;;;;;;5.26;29.14;97330.28;5083141;28;20020;-75
2022/03/19 09:58:22;;;;;;;13.30;8.73;;;;;;;5.28;30.57;97331.03;5082902;28;20024;-75
2022/03/19 10:00:47;;;;;;;12.52;7.43;;;;;;;5.29;29.70;97323.91;5066019;28;20039;-75
2022/03/19 10:03:13;;;;;;;14.27;7.95;;;;;;;5.14;29.05;97325.75;5085606;28;20020;-75
2022/03/19 10:08:36;;;;;;;11.65;8.20;;;;;;;4.87;30.33;97342.47;5073143;28;20082;-76
2022/03/19 10:11:05;;;;;;;19.40;8.70;;;;;;;4.85;30.40;97333.72;5086874;28;20030;-76
2022/03/19 10:13:31;;;;;;;13.48;7.75;;;;;;;4.76;29.66;97322.69;5069545;28;20050;-76
2022/03/19 10:15:56;;;;;;;14.35;8.10;;;;;;;4.88;31.06;97329.06;5086240;28;20529;-76
2022/03/19 10:18:28;;;;;;;11.13;7.18;;;;;;;4.86;30.76;97338.06;5086068;28;20024;-76
2022/03/19 10:20:54;;;;;;;10.95;7.20;;;;;;;4.70;29.66;97326.59;5087084;28;20032;-77
2022/03/19 10:23:39;;;;;;;11.38;7.65;;;;;;;4.80;30.34;97328.69;5086340;28;20028;-76
2022/03/19 10:26:05;;;;;;;14.23;7.97;;;;;;;4.73;31.58;97328.19;5069854;28;20112;-76
2022/03/19 10:28:35;;;;;;;14.45;7.28;;;;;;;4.72;30.58;97331.81;5069756;28;20082;-75
2022/03/19 10:31:00;;;;;;;10.98;8.00;;;;;;;4.68;30.41;97330.28;5085979;28;20071;-78
2022/03/19 10:33:28;;;;;;;11.20;7.13;;;;;;;4.70;30.86;97328.38;5087728;28;20090;-77
2022/03/19 10:36:10;;;;;;;11.90;7.72;;;;;;;4.54;31.15;97321.34;5085895;28;20073;-76
2022/03/19 10:38:44;;;;;;;11.65;6.72;;;;;;;4.57;32.04;97333.59;5087414;28;20103;-76
2022/03/19 10:41:09;;;;;;;12.00;7.03;;;;;;;4.41;30.94;97336.31;5069259;28;20107;-76
2022/03/19 10:43:35;;;;;;;12.13;7.90;;;;;;;4.31;30.87;97328.03;5086131;28;20502;-75
2022/03/19 10:46:02;;;;;;;10.93;6.78;;;;;;;4.28;31.06;97322.88;5086189;28;20441;-75
2022/03/19 10:48:28;;;;;;;11.55;7.35;;;;;;;4.54;32.49;97321.34;5085425;28;20031;-77
2022/03/19 10:50:54;;;;;;;12.93;7.25;;;;;;;4.56;31.71;97322.09;5086555;28;20052;-75
2022/03/19 10:53:21;;;;;;;14.52;7.70;;;;;;;4.62;32.74;97320.88;5068758;28;20517;-75
2022/03/19 10:55:46;;;;;;;10.00;7.03;;;;;;;4.46;31.39;97320.94;5086059;28;20028;-75
2022/03/19 10:58:12;;;;;;;16.63;6.88;;;;;;;4.39;31.87;97332.88;5087066;28;20399;-75
2022/03/19 11:00:37;;;;;;;9.90;6.22;;;;;;;4.23;31.81;97325.81;5086730;28;20032;-75
2022/03/19 11:03:13;;;;;;;10.65;6.75;;;;;;;4.05;31.55;97319.78;5068906;28;20035;-76
2022/03/19 11:05:38;;;;;;;9.77;6.82;;;;;;;4.04;31.84;97326.03;5086436;28;20039;-77
2022/03/19 11:08:07;;;;;;;10.13;6.38;;;;;;;3.91;32.27;97315.28;5087476;28;20016;-75
2022/03/19 11:10:32;;;;;;;10.52;6.28;;;;;;;4.18;32.00;97310.16;5068448;28;20049;-76
2022/03/19 11:12:58;;;;;;;11.80;6.45;;;;;;;4.30;32.21;97305.94;5069020;28;20025;-76
2022/03/19 11:15:23;;;;;;;11.68;6.90;;;;;;;4.36;32.32;97298.53;5085096;28;20031;-76
2022/03/19 11:17:50;;;;;;;10.57;6.65;;;;;;;4.29;32.52;97306.00;5085243;28;20032;-76
2022/03/19 11:20:16;;;;;;;9.63;6.32;;;;;;;4.10;31.91;97308.88;5068491;28;20124;-76
2022/03/19 11:22:46;;;;;;;13.32;7.50;;;;;;;4.20;32.89;97308.28;5084802;28;20476;-75
2022/03/19 11:25:11;;;;;;;10.07;7.00;;;;;;;4.25;32.28;97308.00;5085781;28;20588;-75
2022/03/19 11:27:38;;;;;;;11.07;6.53;;;;;;;3.95;32.84;97300.88;5086015;28;20108;-75
2022/03/19 11:30:05;;;;;;;15.05;7.13;;;;;;;4.04;33.31;97305.66;5068571;28;20055;-75
2022/03/19 11:32:30;;;;;;;10.40;6.80;;;;;;;4.12;31.74;97297.25;5086243;28;20032;-75